KOSU/OSU METAR and TAF weather

Enter ICAO airport designator
Station Type Date Time Source
KOSU METAR 2019/04/18 09:53 UTC NOAA

KOSU 180953Z AUTO 18010KT 10SM CLR 17/08 A2976 RMK AO2 SLP072 T01670083


Station Type Date Time Source
KOSU Decoded METAR 2019/04/18 09:53 UTC NOAA

OHIO STATE UNIVERSITY AIRPORT , OH, United States (KOSU) 40-05N 083-05W 280M
Apr 18, 2019 - 05:53 AM EDT / 2019.04.18 0953 UTC
Wind: from the S (180 degrees) at 12 MPH (10 KT):0
Visibility: 10 mile(s):0
Sky conditions: clear
Temperature: 62.1 F (16.7 C)
Dew Point: 46.9 F (8.3 C)
Relative Humidity: 57%
Pressure (altimeter): 29.76 in. Hg (1007 hPa)
ob: KOSU 180953Z AUTO 18010KT 10SM CLR 17/08 A2976 RMK AO2 SLP072 T01670083
cycle: 10

Station Type Date Time Source
KOSU TAF UTC NOAA

Error!

Example: see airport list